Time;durP1;ratioP1;P1;durP2;ratioP2;P2;SDS_P1;SDS_P2;PMS_P1;PMS_P2;Temp;Humidity;BMP_temperature;BMP_pressure;BME280_temperature;BME280_humidity;BME280_pressure;Samples;Min_cycle;Max_cycle;Signal;HPM_P1;HPM_P2
2021/10/22 00:01:05;;;;;;;16.75;2.53;;;6.80;99.90;;;;;;5063700;28;20041;-86
2021/10/22 00:03:31;;;;;;;13.88;2.00;;;6.80;99.90;;;;;;5037292;28;20037;-85
2021/10/22 00:05:58;;;;;;;13.18;1.88;;;6.80;99.90;;;;;;5038811;28;20049;-86
2021/10/22 00:08:27;;;;;;;10.63;1.90;;;6.90;99.90;;;;;;5060378;28;20041;-85
2021/10/22 00:10:53;;;;;;;9.63;1.25;;;6.90;99.90;;;;;;5049683;28;21190;-85
2021/10/22 00:13:19;;;;;;;11.57;2.08;;;6.90;99.90;;;;;;5048592;28;20059;-85
2021/10/22 00:15:46;;;;;;;4.72;1.02;;;6.90;99.90;;;;;;5063021;28;20505;-87
2021/10/22 00:18:12;;;;;;;9.95;1.75;;;6.90;99.90;;;;;;5059453;28;20513;-84
2021/10/22 00:20:38;;;;;;;7.93;1.42;;;6.90;99.90;;;;;;5071436;28;20052;-84
2021/10/22 00:23:03;;;;;;;12.52;1.95;;;6.90;99.90;;;;;;5065255;28;20041;-85
2021/10/22 00:25:29;;;;;;;13.57;2.20;;;6.90;99.90;;;;;;5064187;28;20099;-86
2021/10/22 00:27:55;;;;;;;24.20;2.45;;;6.90;99.90;;;;;;5080925;28;20040;-87
2021/10/22 00:30:21;;;;;;;14.73;1.88;;;6.90;99.90;;;;;;5048368;28;20036;-88
2021/10/22 00:32:47;;;;;;;10.48;1.42;;;6.80;99.90;;;;;;5046021;28;20048;-90
2021/10/22 00:35:13;;;;;;;18.25;2.28;;;6.80;99.90;;;;;;5044717;28;20033;-90
2021/10/22 00:37:38;;;;;;;23.00;2.50;;;6.80;99.90;;;;;;5057276;28;20044;-90
2021/10/22 00:40:05;;;;;;;22.63;3.55;;;6.70;99.90;;;;;;5051520;28;20079;-89
2021/10/22 00:42:33;;;;;;;19.20;2.47;;;6.70;99.90;;;;;;5050695;28;20121;-89
2021/10/22 00:44:59;;;;;;;13.88;1.98;;;6.70;99.90;;;;;;5067917;28;20110;-89
2021/10/22 00:47:25;;;;;;;21.67;2.38;;;6.70;99.90;;;;;;5068269;28;20072;-89
2021/10/22 00:49:51;;;;;;;17.10;2.03;;;6.80;99.90;;;;;;5053434;28;20086;-90
2021/10/22 00:52:22;;;;;;;14.40;2.28;;;6.80;99.90;;;;;;5025709;28;20409;-90
2021/10/22 00:54:49;;;;;;;19.38;2.30;;;6.90;99.90;;;;;;5045663;28;20514;-86
2021/10/22 00:57:16;;;;;;;17.38;2.33;;;6.90;99.90;;;;;;5048884;28;20045;-83
2021/10/22 00:59:42;;;;;;;10.60;2.13;;;6.80;99.90;;;;;;5062271;28;20033;-83
2021/10/22 01:02:10;;;;;;;17.50;2.88;;;6.80;99.90;;;;;;5059854;28;20044;-84
2021/10/22 01:04:38;;;;;;;12.52;2.10;;;6.80;99.90;;;;;;5047163;28;20534;-84
2021/10/22 01:07:06;;;;;;;8.20;1.30;;;6.70;99.90;;;;;;5046623;28;20532;-85
2021/10/22 01:09:32;;;;;;;14.75;2.25;;;6.70;99.90;;;;;;5048655;28;20437;-86
2021/10/22 01:11:58;;;;;;;15.27;1.80;;;6.50;99.90;;;;;;5038269;28;20049;-85
2021/10/22 01:14:24;;;;;;;15.88;1.98;;;6.50;99.90;;;;;;5065445;28;20047;-85
2021/10/22 01:16:50;;;;;;;10.77;1.45;;;6.40;99.90;;;;;;5071720;28;20052;-86
2021/10/22 01:19:17;;;;;;;15.65;1.98;;;6.40;99.90;;;;;;5059028;28;20043;-86
2021/10/22 01:21:49;;;;;;;15.95;1.75;;;6.30;99.90;;;;;;5060227;28;20041;-85
2021/10/22 01:24:16;;;;;;;14.93;1.42;;;6.30;99.90;;;;;;5063183;28;20453;-85
2021/10/22 01:26:42;;;;;;;9.18;1.85;;;6.20;99.90;;;;;;5057728;28;20074;-84
2021/10/22 01:29:08;;;;;;;13.23;1.88;;;6.20;99.90;;;;;;5049580;28;20094;-85
2021/10/22 01:31:34;;;;;;;12.02;1.73;;;6.20;99.90;;;;;;5065735;28;20045;-85
2021/10/22 01:34:00;;;;;;;18.63;2.30;;;6.20;99.90;;;;;;5045350;28;20044;-86
2021/10/22 01:36:26;;;;;;;16.90;2.42;;;6.10;99.90;;;;;;5064398;28;20120;-86
2021/10/22 01:38:53;;;;;;;12.43;1.75;;;6.10;99.90;;;;;;5063279;28;20044;-87
2021/10/22 01:41:20;;;;;;;22.00;2.50;;;6.10;99.90;;;;;;5048864;28;20102;-86
2021/10/22 01:43:46;;;;;;;12.30;1.83;;;6.00;99.90;;;;;;5048480;28;20536;-86
2021/10/22 01:46:12;;;;;;;10.38;2.80;;;6.00;99.90;;;;;;5059309;28;20052;-87
2021/10/22 01:48:39;;;;;;;13.85;2.40;;;6.10;99.90;;;;;;5047658;28;20504;-86
2021/10/22 01:51:05;;;;;;;29.38;2.47;;;6.00;99.90;;;;;;5045425;28;20083;-86
2021/10/22 01:53:31;;;;;;;19.38;2.50;;;6.00;99.90;;;;;;5035370;28;20402;-86
2021/10/22 01:55:57;;;;;;;35.75;3.53;;;6.10;99.90;;;;;;5062038;28;20044;-86
2021/10/22 01:58:23;;;;;;;11.88;2.25;;;6.10;99.90;;;;;;5029737;28;20045;-85
2021/10/22 02:00:49;;;;;;;18.05;2.53;;;6.20;99.90;;;;;;5046502;28;20044;-86
2021/10/22 02:03:15;;;;;;;19.65;2.35;;;6.30;99.90;;;;;;5035885;28;20049;-86
2021/10/22 02:05:41;;;;;;;12.88;2.22;;;6.40;99.90;;;;;;5046339;28;20487;-85
2021/10/22 02:08:08;;;;;;;16.02;2.00;;;6.50;99.90;;;;;;5045482;28;20074;-85
2021/10/22 02:10:34;;;;;;;16.85;2.17;;;6.40;99.90;;;;;;5047196;28;20186;-86
2021/10/22 02:13:00;;;;;;;21.65;2.13;;;6.50;99.90;;;;;;5064499;28;20060;-85
2021/10/22 02:15:26;;;;;;;14.32;2.42;;;6.60;99.90;;;;;;5066320;28;20052;-86
2021/10/22 02:17:52;;;;;;;15.57;2.25;;;6.60;99.90;;;;;;5049323;28;20409;-86
2021/10/22 02:20:19;;;;;;;21.33;2.50;;;6.60;99.90;;;;;;5048822;28;20044;-86
2021/10/22 02:22:45;;;;;;;19.98;2.38;;;6.70;99.90;;;;;;5065748;28;20052;-87
2021/10/22 02:25:11;;;;;;;17.95;2.08;;;6.60;99.90;;;;;;5047986;28;20048;-88
2021/10/22 02:27:36;;;;;;;11.52;2.03;;;6.60;99.90;;;;;;5033072;28;20059;-87
2021/10/22 02:30:04;;;;;;;13.55;1.90;;;6.50;99.90;;;;;;5064435;28;20041;-85
2021/10/22 02:32:31;;;;;;;14.00;2.50;;;6.60;99.90;;;;;;5037790;28;20506;-86
2021/10/22 02:34:56;;;;;;;19.88;2.53;;;6.60;99.90;;;;;;5064324;28;20040;-86
2021/10/22 02:37:22;;;;;;;16.08;2.10;;;6.60;99.90;;;;;;5048901;28;20059;-87
2021/10/22 02:39:48;;;;;;;13.85;2.60;;;6.50;99.90;;;;;;5049293;28;20040;-86
2021/10/22 02:42:14;;;;;;;10.10;2.35;;;6.70;99.90;;;;;;5047747;28;20040;-87
2021/10/22 02:44:39;;;;;;;13.05;2.05;;;6.60;99.90;;;;;;5049486;28;20127;-86
2021/10/22 02:47:05;;;;;;;13.98;2.42;;;6.60;99.90;;;;;;5047430;28;20051;-88
2021/10/22 02:49:31;;;;;;;15.18;2.15;;;6.60;99.90;;;;;;5066075;28;20036;-86
2021/10/22 02:51:57;;;;;;;13.43;2.13;;;6.70;99.90;;;;;;5030888;28;20045;-86
2021/10/22 02:54:23;;;;;;;23.33;2.80;;;6.70;99.90;;;;;;5065422;28;20135;-87
2021/10/22 02:56:49;;;;;;;14.57;2.55;;;6.80;99.90;;;;;;5028941;28;20136;-86
2021/10/22 02:59:15;;;;;;;12.98;2.00;;;6.80;99.90;;;;;;5053846;28;20478;-86
2021/10/22 03:01:40;;;;;;;17.65;1.95;;;6.80;99.90;;;;;;5048709;28;20493;-87
2021/10/22 03:04:06;;;;;;;16.83;1.83;;;6.80;99.90;;;;;;5046947;28;20048;-86
2021/10/22 03:06:32;;;;;;;19.83;2.72;;;6.90;99.90;;;;;;5049290;28;20040;-86
2021/10/22 03:08:57;;;;;;;15.85;2.67;;;6.90;99.90;;;;;;5045884;28;20052;-86
2021/10/22 03:11:23;;;;;;;21.02;2.38;;;6.90;99.90;;;;;;5052747;28;20557;-87
2021/10/22 03:13:49;;;;;;;14.98;1.92;;;6.80;99.90;;;;;;5047622;28;20052;-86
2021/10/22 03:16:15;;;;;;;17.88;2.08;;;6.80;99.90;;;;;;5064341;28;20131;-87
2021/10/22 03:18:41;;;;;;;20.52;2.42;;;6.80;99.90;;;;;;5049233;28;20106;-87
2021/10/22 03:21:07;;;;;;;19.40;2.63;;;6.80;99.90;;;;;;5046877;28;20036;-87
2021/10/22 03:23:32;;;;;;;16.23;2.63;;;6.80;99.90;;;;;;5044834;28;20091;-87
2021/10/22 03:25:58;;;;;;;20.52;2.60;;;6.90;99.90;;;;;;5059364;28;20154;-87
2021/10/22 03:28:24;;;;;;;20.55;2.65;;;6.80;99.90;;;;;;5082428;28;20494;-86
2021/10/22 03:30:50;;;;;;;24.52;4.75;;;7.00;99.90;;;;;;5047696;28;20040;-86
2021/10/22 03:33:16;;;;;;;21.00;2.95;;;7.10;99.90;;;;;;5064538;28;20067;-87
2021/10/22 03:35:42;;;;;;;16.00;2.60;;;7.10;99.90;;;;;;5065220;28;20044;-87
2021/10/22 03:38:08;;;;;;;19.55;2.60;;;7.10;99.90;;;;;;5046736;28;20383;-86
2021/10/22 03:40:34;;;;;;;16.55;2.50;;;7.10;99.90;;;;;;5066041;28;20131;-87
2021/10/22 03:42:59;;;;;;;16.58;2.13;;;7.00;99.90;;;;;;5063868;28;20136;-87
2021/10/22 03:45:26;;;;;;;13.02;2.05;;;7.00;99.90;;;;;;5065204;28;20505;-85
2021/10/22 03:47:53;;;;;;;21.73;2.45;;;7.00;99.90;;;;;;5047409;28;20040;-84
2021/10/22 03:50:19;;;;;;;20.95;2.55;;;7.10;99.90;;;;;;5065541;28;20375;-85
2021/10/22 03:52:45;;;;;;;25.15;2.85;;;7.10;99.90;;;;;;5065030;28;20154;-86
2021/10/22 03:55:12;;;;;;;21.33;2.75;;;7.10;99.90;;;;;;5063378;28;20040;-86
2021/10/22 03:57:38;;;;;;;20.35;2.72;;;7.20;99.90;;;;;;5048548;28;20044;-86
2021/10/22 04:00:05;;;;;;;11.63;2.17;;;7.20;99.90;;;;;;5063244;28;20052;-86
2021/10/22 04:02:31;;;;;;;12.63;1.98;;;7.30;99.90;;;;;;5065224;28;20102;-86
2021/10/22 04:04:57;;;;;;;13.73;2.28;;;7.30;99.90;;;;;;5063288;28;20441;-86
2021/10/22 04:07:23;;;;;;;20.15;3.97;;;7.20;99.90;;;;;;5065489;28;20124;-85
2021/10/22 04:09:49;;;;;;;12.40;2.05;;;7.20;99.90;;;;;;5029043;28;20044;-85
2021/10/22 04:12:14;;;;;;;21.30;3.47;;;7.20;99.90;;;;;;5061813;28;20222;-85
2021/10/22 04:14:41;;;;;;;17.98;2.45;;;7.20;99.90;;;;;;5052751;28;20071;-85
2021/10/22 04:17:07;;;;;;;14.90;2.70;;;7.30;99.90;;;;;;5066483;28;20048;-86
2021/10/22 04:19:33;;;;;;;22.08;2.78;;;7.30;99.90;;;;;;5069164;28;20105;-86
2021/10/22 04:21:59;;;;;;;23.48;3.22;;;7.30;99.90;;;;;;5050168;28;20127;-86
2021/10/22 04:24:25;;;;;;;26.23;3.05;;;7.40;99.90;;;;;;5068645;28;20164;-86
2021/10/22 04:26:51;;;;;;;19.92;2.35;;;7.30;99.90;;;;;;5050628;28;20075;-86
2021/10/22 04:29:17;;;;;;;22.17;4.05;;;7.40;99.90;;;;;;5067787;28;20052;-86
2021/10/22 04:31:44;;;;;;;17.73;3.05;;;7.50;99.90;;;;;;5051592;28;20497;-88
2021/10/22 04:34:09;;;;;;;17.88;2.72;;;7.50;99.90;;;;;;5067142;28;20387;-88
2021/10/22 04:36:36;;;;;;;18.25;2.65;;;7.50;99.90;;;;;;5051703;28;20127;-89
2021/10/22 04:41:49;;;;;;;19.70;2.80;;;7.50;99.90;;;;;;5068903;28;20429;-85
2021/10/22 04:44:18;;;;;;;16.50;2.33;;;7.50;99.90;;;;;;5067149;28;20055;-85
2021/10/22 04:46:43;;;;;;;21.40;2.35;;;7.50;99.90;;;;;;5067037;28;20044;-85
2021/10/22 04:49:09;;;;;;;15.15;2.78;;;7.50;99.90;;;;;;5064863;28;20051;-84
2021/10/22 04:51:35;;;;;;;11.25;1.73;;;7.60;99.90;;;;;;5066611;28;20127;-84
2021/10/22 04:54:01;;;;;;;18.08;2.58;;;7.60;99.90;;;;;;5068151;28;20399;-86
2021/10/22 04:56:27;;;;;;;16.40;2.10;;;7.70;99.90;;;;;;5066440;28;20383;-85
2021/10/22 04:58:53;;;;;;;9.00;2.03;;;7.70;99.90;;;;;;5034609;28;20121;-86
2021/10/22 05:01:18;;;;;;;18.70;2.90;;;7.70;99.90;;;;;;5066041;28;20056;-84
2021/10/22 05:03:44;;;;;;;16.52;2.28;;;7.80;99.90;;;;;;5067792;28;20131;-85
2021/10/22 05:06:11;;;;;;;8.40;1.90;;;7.80;99.90;;;;;;5050938;28;20059;-84
2021/10/22 05:08:38;;;;;;;15.27;2.47;;;7.70;99.90;;;;;;5066338;28;20024;-84
2021/10/22 05:11:04;;;;;;;17.35;3.78;;;7.70;99.90;;;;;;5036781;28;20060;-84
2021/10/22 05:13:30;;;;;;;12.13;2.08;;;7.70;99.90;;;;;;5067972;28;20052;-84
2021/10/22 05:15:56;;;;;;;16.45;2.13;;;7.70;99.90;;;;;;5067708;28;20051;-85
2021/10/22 05:18:22;;;;;;;13.77;3.15;;;7.60;99.90;;;;;;5034903;28;20541;-84
2021/10/22 05:20:48;;;;;;;12.68;1.88;;;7.60;99.90;;;;;;5064748;28;20051;-84
2021/10/22 05:23:14;;;;;;;21.30;2.85;;;7.60;99.90;;;;;;5046731;28;20175;-84
2021/10/22 05:25:40;;;;;;;12.38;1.95;;;7.70;99.90;;;;;;5047175;28;20127;-84
2021/10/22 05:28:06;;;;;;;12.13;2.20;;;7.70;99.90;;;;;;5063792;28;20037;-84
2021/10/22 05:30:32;;;;;;;11.70;1.58;;;7.70;99.90;;;;;;5055970;28;20125;-84
2021/10/22 05:32:58;;;;;;;9.50;1.73;;;7.70;99.90;;;;;;5052794;28;20120;-86
2021/10/22 05:35:24;;;;;;;17.67;3.17;;;7.70;99.90;;;;;;5029111;28;20409;-85
2021/10/22 05:37:50;;;;;;;11.63;2.53;;;7.80;99.90;;;;;;5049922;28;20045;-86
2021/10/22 05:40:16;;;;;;;13.90;2.70;;;7.80;99.90;;;;;;5029596;28;20048;-86
2021/10/22 05:42:41;;;;;;;15.23;2.55;;;7.80;99.90;;;;;;5047026;28;20123;-86
2021/10/22 05:45:08;;;;;;;12.82;2.78;;;7.80;99.90;;;;;;5046929;28;20475;-86
2021/10/22 05:47:35;;;;;;;18.92;1.90;;;7.70;99.90;;;;;;5036020;28;20044;-85
2021/10/22 05:50:01;;;;;;;10.95;1.58;;;7.70;99.90;;;;;;5033546;28;20091;-85
2021/10/22 05:52:27;;;;;;;11.90;2.33;;;7.70;99.90;;;;;;5044859;28;20045;-84
2021/10/22 05:54:52;;;;;;;12.05;1.73;;;7.70;99.90;;;;;;5047327;28;20072;-85
2021/10/22 05:57:18;;;;;;;13.57;2.05;;;7.70;99.90;;;;;;5029277;28;20524;-85
2021/10/22 05:59:44;;;;;;;13.45;1.70;;;7.70;99.90;;;;;;5054322;28;20045;-87
2021/10/22 06:02:10;;;;;;;11.82;1.63;;;7.80;99.90;;;;;;5035533;28;20346;-85
2021/10/22 06:04:36;;;;;;;18.63;3.47;;;7.70;99.90;;;;;;5045688;28;20080;-86
2021/10/22 06:07:01;;;;;;;15.68;2.08;;;7.80;99.90;;;;;;5046955;28;20139;-85
2021/10/22 06:09:27;;;;;;;13.43;2.40;;;7.80;99.90;;;;;;5039948;28;20439;-87
2021/10/22 06:11:53;;;;;;;11.77;2.00;;;7.90;99.90;;;;;;5049594;28;20048;-89
2021/10/22 06:14:19;;;;;;;13.57;2.55;;;8.00;99.90;;;;;;5031227;28;20426;-87
2021/10/22 06:16:45;;;;;;;15.15;2.20;;;7.90;99.90;;;;;;5066684;28;20045;-87
2021/10/22 06:19:16;;;;;;;14.23;2.58;;;8.00;99.90;;;;;;5082668;28;20147;-88
2021/10/22 06:24:08;;;;;;;20.33;3.00;;;7.90;99.90;;;;;;5065549;28;20087;-86
2021/10/22 06:26:38;;;;;;;19.10;2.70;;;7.90;99.90;;;;;;5033545;28;20064;-86
2021/10/22 06:29:06;;;;;;;18.17;2.58;;;7.90;99.90;;;;;;5055911;28;20505;-88
2021/10/22 06:31:33;;;;;;;14.57;2.13;;;7.80;99.90;;;;;;5041946;28;20052;-84
2021/10/22 06:33:59;;;;;;;13.57;2.20;;;7.90;99.90;;;;;;5044751;28;20128;-83
2021/10/22 06:36:25;;;;;;;21.35;2.58;;;7.90;99.90;;;;;;5045712;28;20049;-84
2021/10/22 06:38:51;;;;;;;18.02;3.40;;;8.00;99.90;;;;;;5058677;28;20094;-84
2021/10/22 06:41:18;;;;;;;14.65;2.40;;;8.00;99.90;;;;;;5063727;28;20040;-84
2021/10/22 06:43:45;;;;;;;11.07;2.55;;;8.20;99.90;;;;;;5054344;28;20052;-84
2021/10/22 06:46:11;;;;;;;13.73;2.78;;;8.20;99.90;;;;;;5062543;28;20044;-85
2021/10/22 06:48:39;;;;;;;13.02;2.55;;;8.30;99.90;;;;;;5060164;28;20036;-84
2021/10/22 06:51:07;;;;;;;12.45;2.78;;;8.30;99.90;;;;;;5046260;28;20076;-85
2021/10/22 06:53:33;;;;;;;18.10;2.67;;;8.30;99.90;;;;;;5050466;28;20051;-83
2021/10/22 06:55:59;;;;;;;13.15;2.13;;;8.30;99.90;;;;;;5045238;28;20062;-84
2021/10/22 06:58:25;;;;;;;11.13;1.90;;;8.40;99.90;;;;;;5046593;28;20841;-85
2021/10/22 07:00:51;;;;;;;14.05;2.70;;;8.40;99.90;;;;;;5045128;28;20116;-87
2021/10/22 07:03:20;;;;;;;17.77;3.08;;;8.40;99.90;;;;;;5050021;28;20510;-89
2021/10/22 07:05:51;;;;;;;13.80;2.70;;;8.50;99.90;;;;;;5030647;28;20041;-87
2021/10/22 07:08:17;;;;;;;14.40;2.40;;;8.40;99.90;;;;;;5054043;28;20045;-86
2021/10/22 07:10:44;;;;;;;15.07;2.88;;;8.40;99.90;;;;;;5050275;28;20098;-95
2021/10/22 07:13:10;;;;;;;14.68;2.60;;;8.30;99.90;;;;;;5066737;28;20091;-89
2021/10/22 07:15:37;;;;;;;11.15;2.35;;;8.20;99.90;;;;;;5061074;28;20041;-88
2021/10/22 07:18:04;;;;;;;15.65;2.55;;;8.10;99.90;;;;;;5035950;28;20049;-88
2021/10/22 07:20:31;;;;;;;12.85;2.42;;;8.00;99.90;;;;;;5056642;28;20503;-92
2021/10/22 07:25:31;;;;;;;6.38;1.60;;;7.80;99.90;;;;;;5055174;28;20059;-88
2021/10/22 07:27:57;;;;;;;12.77;1.70;;;7.70;99.90;;;;;;5046615;28;20037;-88
2021/10/22 07:30:23;;;;;;;5.35;1.90;;;7.70;99.90;;;;;;5028218;28;20049;-86
2021/10/22 07:32:49;;;;;;;9.00;1.25;;;7.70;99.90;;;;;;5053040;28;20099;-88
2021/10/22 07:35:15;;;;;;;17.80;1.98;;;7.70;99.90;;;;;;5027952;28;20048;-92
2021/10/22 07:37:41;;;;;;;10.70;1.85;;;7.80;99.90;;;;;;5050975;28;20037;-93
2021/10/22 07:40:08;;;;;;;15.93;2.55;;;7.80;99.90;;;;;;5050012;28;20415;-94
2021/10/22 07:42:35;;;;;;;16.80;2.53;;;7.90;99.90;;;;;;5043638;28;20490;-93
2021/10/22 07:45:04;;;;;;;21.00;2.60;;;7.80;99.90;;;;;;5052376;28;20087;-90
2021/10/22 07:47:35;;;;;;;21.17;2.30;;;7.90;99.90;;;;;;5032965;28;20057;-90
2021/10/22 07:50:04;;;;;;;21.13;2.40;;;8.00;99.90;;;;;;5036917;28;20346;-91
2021/10/22 07:52:30;;;;;;;16.85;2.92;;;8.00;99.90;;;;;;5040216;28;20055;-89
2021/10/22 07:54:59;;;;;;;19.15;2.05;;;8.00;99.90;;;;;;5053296;28;20049;-89
2021/10/22 07:57:27;;;;;;;11.85;2.00;;;8.00;99.90;;;;;;5032798;28;20406;-88
2021/10/22 07:59:53;;;;;;;15.63;2.10;;;8.00;99.90;;;;;;5050998;28;20037;-89
2021/10/22 08:02:21;;;;;;;12.20;2.20;;;8.00;99.90;;;;;;5030011;28;20045;-88
2021/10/22 08:04:48;;;;;;;17.95;2.10;;;8.10;99.90;;;;;;5047984;28;20052;-89
2021/10/22 08:07:16;;;;;;;24.52;2.38;;;8.10;99.90;;;;;;5043705;28;20074;-86
2021/10/22 08:09:44;;;;;;;25.85;2.95;;;8.20;99.90;;;;;;5058463;28;20063;-86
2021/10/22 08:12:11;;;;;;;21.05;2.83;;;8.30;99.90;;;;;;5060395;28;20056;-87
2021/10/22 08:14:37;;;;;;;18.10;3.22;;;8.40;99.90;;;;;;5048050;28;20032;-86
2021/10/22 08:17:03;;;;;;;19.42;2.85;;;8.60;99.90;;;;;;5051809;28;20045;-86
2021/10/22 08:19:29;;;;;;;21.05;2.63;;;8.70;99.90;;;;;;5050461;28;20549;-86
2021/10/22 08:24:24;;;;;;;16.38;2.33;;;8.90;99.90;;;;;;5062456;28;20047;-86
2021/10/22 08:26:50;;;;;;;9.63;1.92;;;9.00;99.90;;;;;;5046275;28;20048;-87
2021/10/22 08:29:17;;;;;;;11.98;2.28;;;9.10;99.90;;;;;;5046785;28;20080;-83
2021/10/22 08:31:42;;;;;;;14.88;2.40;;;9.10;99.90;;;;;;5056654;28;20056;-84
2021/10/22 08:34:08;;;;;;;10.95;2.25;;;9.30;99.90;;;;;;5033756;28;20475;-83
2021/10/22 08:36:34;;;;;;;10.82;1.98;;;9.30;99.90;;;;;;5062458;28;20063;-87
2021/10/22 08:38:59;;;;;;;13.35;2.15;;;9.50;99.90;;;;;;5050769;28;20048;-87
2021/10/22 08:41:26;;;;;;;16.70;2.60;;;9.60;99.90;;;;;;5042287;28;20052;-89
2021/10/22 08:43:53;;;;;;;19.25;2.95;;;9.60;99.90;;;;;;5046712;28;20094;-91
2021/10/22 08:46:22;;;;;;;22.48;2.50;;;9.40;99.90;;;;;;5063117;28;20066;-96
2021/10/22 08:48:48;;;;;;;91.43;6.63;;;9.40;99.90;;;;;;5060225;28;20044;-90
2021/10/22 08:51:18;;;;;;;24.17;3.33;;;9.10;99.90;;;;;;5065317;28;20388;-93
2021/10/22 08:53:45;;;;;;;25.67;3.17;;;8.60;99.90;;;;;;5057035;28;20381;-94
2021/10/22 08:56:11;;;;;;;20.13;3.25;;;8.50;99.90;;;;;;5044068;28;20045;-96
2021/10/22 08:58:36;;;;;;;17.80;3.35;;;8.40;99.90;;;;;;5056881;28;20033;-94
2021/10/22 09:01:02;;;;;;;22.85;3.22;;;8.50;99.90;;;;;;5052991;28;21081;-96
2021/10/22 09:03:37;;;;;;;20.10;2.42;;;8.40;99.90;;;;;;5037916;28;20736;-93
2021/10/22 09:06:09;;;;;;;20.98;3.65;;;8.40;99.90;;;;;;5037588;28;20040;-96
2021/10/22 09:08:39;;;;;;;14.35;3.75;;;8.40;99.90;;;;;;5042025;28;20037;-95
2021/10/22 09:11:17;;;;;;;44.25;4.93;;;8.60;99.90;;;;;;5064214;28;20531;-92
2021/10/22 09:13:44;;;;;;;18.85;4.20;;;8.40;99.90;;;;;;5053622;28;20529;-93
2021/10/22 09:16:23;;;;;;;13.27;2.47;;;8.40;99.90;;;;;;5030108;28;20124;-94
2021/10/22 09:18:54;;;;;;;12.00;2.13;;;8.00;99.90;;;;;;5025785;28;20083;-92
2021/10/22 09:21:32;;;;;;;21.00;3.25;;;7.80;99.90;;;;;;5038550;28;20395;-91
2021/10/22 09:24:18;;;;;;;23.60;3.90;;;7.90;99.90;;;;;;5029955;28;20041;-95
2021/10/22 09:26:56;;;;;;;22.90;4.22;;;7.90;99.90;;;;;;5060803;28;20048;-96
2021/10/22 09:29:28;;;;;;;33.33;3.75;;;8.00;99.90;;;;;;5065099;28;20059;-94
2021/10/22 09:31:57;;;;;;;39.15;4.28;;;8.00;99.90;;;;;;5039706;28;20869;-93
2021/10/22 09:34:32;;;;;;;30.85;5.50;;;8.10;99.90;;;;;;5047614;28;20045;-95
2021/10/22 09:37:00;;;;;;;23.40;3.53;;;8.00;99.90;;;;;;5051247;28;20092;-95
2021/10/22 09:39:33;;;;;;;26.85;3.97;;;8.10;99.90;;;;;;5059035;28;20047;-96
2021/10/22 09:42:01;;;;;;;28.92;4.05;;;8.20;99.90;;;;;;5059148;28;20056;-96
2021/10/22 09:44:31;;;;;;;37.50;4.60;;;8.40;99.90;;;;;;5044442;28;20044;-96
2021/10/22 09:47:03;;;;;;;32.55;3.88;;;8.40;99.90;;;;;;5051340;28;20126;-96
2021/10/22 09:49:33;;;;;;;20.25;2.83;;;8.50;99.90;;;;;;5061245;28;20107;-96
2021/10/22 09:52:01;;;;;;;27.13;3.55;;;8.20;99.90;;;;;;5068109;28;20055;-96
2021/10/22 09:54:33;;;;;;;27.58;3.47;;;8.20;99.90;;;;;;5060831;28;20056;-94
2021/10/22 09:57:07;;;;;;;29.40;2.97;;;8.30;99.90;;;;;;5053269;28;20291;-95
2021/10/22 09:59:33;;;;;;;26.73;3.45;;;8.30;99.90;;;;;;5032354;28;20032;-92
2021/10/22 10:02:07;;;;;;;16.50;3.30;;;8.40;99.90;;;;;;5044368;28;20124;-93
2021/10/22 10:04:39;;;;;;;22.20;3.67;;;8.40;99.90;;;;;;5071712;28;20047;-96
2021/10/22 10:07:07;;;;;;;13.75;2.35;;;8.60;99.90;;;;;;5047338;28;20092;-96
2021/10/22 10:09:33;;;;;;;18.55;3.95;;;8.50;99.90;;;;;;5053968;28;20036;-96
2021/10/22 10:12:01;;;;;;;24.30;4.35;;;8.40;99.90;;;;;;5052070;28;20060;-96
2021/10/22 10:14:31;;;;;;;19.48;2.78;;;8.50;99.90;;;;;;5051023;28;20048;-89
2021/10/22 10:16:58;;;;;;;33.15;4.35;;;8.80;99.90;;;;;;5031215;28;20049;-94
2021/10/22 10:19:46;;;;;;;18.70;2.47;;;8.90;99.90;;;;;;5047259;28;20486;-90
2021/10/22 10:22:16;;;;;;;27.30;2.72;;;8.80;99.90;;;;;;5054198;28;20041;-91
2021/10/22 10:25:05;;;;;;;34.95;3.17;;;8.60;99.90;;;;;;5050226;28;20045;-96
2021/10/22 10:27:44;;;;;;;29.00;3.60;;;8.70;99.90;;;;;;5047462;28;20410;-95
2021/10/22 10:30:13;;;;;;;25.67;3.75;;;8.70;99.90;;;;;;5046436;28;20041;-94
2021/10/22 10:32:42;;;;;;;24.60;3.22;;;8.50;99.90;;;;;;5059706;28;20123;-92
2021/10/22 10:35:14;;;;;;;28.00;3.95;;;8.70;99.90;;;;;;5043281;28;20435;-90
2021/10/22 10:37:43;;;;;;;25.05;3.35;;;8.90;99.90;;;;;;5047125;28;20169;-92
2021/10/22 10:40:12;;;;;;;29.50;4.65;;;8.80;99.90;;;;;;5044414;28;20037;-89
2021/10/22 10:42:58;;;;;;;29.27;3.45;;;8.90;99.90;;;;;;5045578;28;20440;-88
2021/10/22 10:45:24;;;;;;;22.73;3.97;;;9.10;99.90;;;;;;5037757;28;20508;-87
2021/10/22 10:47:54;;;;;;;24.63;4.05;;;8.90;99.90;;;;;;5053678;28;20048;-86
2021/10/22 10:50:24;;;;;;;21.30;3.20;;;9.10;99.90;;;;;;5059266;28;20051;-86
2021/10/22 10:52:52;;;;;;;14.95;2.97;;;8.80;99.90;;;;;;5055167;28;20041;-87
2021/10/22 10:55:29;;;;;;;18.38;2.08;;;8.70;99.90;;;;;;5062436;28;20071;-91
2021/10/22 10:58:09;;;;;;;20.58;2.85;;;8.60;99.90;;;;;;5035268;28;20422;-93
2021/10/22 11:00:49;;;;;;;16.63;2.92;;;8.30;99.90;;;;;;5046069;28;20507;-86
2021/10/22 11:03:18;;;;;;;16.77;1.87;;;8.30;99.90;;;;;;5046672;28;20059;-87
2021/10/22 11:08:21;;;;;;;15.38;3.67;;;7.90;99.90;;;;;;5062509;28;20071;-87
2021/10/22 11:11:11;;;;;;;16.08;1.65;;;8.10;99.90;;;;;;5045950;28;20072;-86
2021/10/22 11:13:47;;;;;;;9.52;2.00;;;7.90;99.90;;;;;;5064862;28;20044;-86
2021/10/22 11:16:22;;;;;;;22.98;3.65;;;8.00;99.90;;;;;;5048533;28;20040;-86
2021/10/22 11:18:54;;;;;;;12.50;2.97;;;7.70;99.90;;;;;;5063178;28;20056;-86
2021/10/22 11:21:21;;;;;;;25.90;5.07;;;8.00;99.90;;;;;;5048681;28;20047;-86
2021/10/22 11:23:48;;;;;;;16.90;3.13;;;7.80;99.90;;;;;;5064266;28;20107;-86
2021/10/22 11:26:19;;;;;;;17.60;3.92;;;8.00;99.90;;;;;;5064609;28;20040;-86
2021/10/22 11:28:49;;;;;;;14.15;1.85;;;8.00;99.90;;;;;;5047923;28;20052;-86
2021/10/22 11:31:41;;;;;;;13.80;1.80;;;8.20;99.90;;;;;;5063813;28;20056;-86
2021/10/22 11:34:12;;;;;;;16.65;3.25;;;8.40;99.90;;;;;;5064923;28;20095;-86
2021/10/22 11:36:39;;;;;;;14.43;3.42;;;8.60;99.90;;;;;;5047089;28;20032;-89
2021/10/22 11:39:19;;;;;;;18.42;2.83;;;8.60;99.90;;;;;;5027706;28;20487;-87
2021/10/22 11:41:45;;;;;;;20.85;3.05;;;8.70;99.90;;;;;;5044642;28;20142;-87
2021/10/22 11:44:11;;;;;;;23.45;3.42;;;8.80;99.90;;;;;;5043931;28;20060;-87
2021/10/22 11:46:45;;;;;;;23.15;4.18;;;8.90;99.90;;;;;;5036592;28;20167;-85
2021/10/22 11:49:32;;;;;;;21.52;4.03;;;9.10;99.90;;;;;;5050719;28;20040;-87
2021/10/22 11:52:00;;;;;;;25.25;2.85;;;9.20;99.90;;;;;;5041203;28;20053;-86
2021/10/22 11:54:47;;;;;;;28.75;3.33;;;9.30;99.90;;;;;;5044516;28;20056;-84
2021/10/22 11:57:22;;;;;;;16.45;2.70;;;9.30;99.90;;;;;;5047466;28;20033;-83
2021/10/22 11:59:58;;;;;;;18.92;2.10;;;9.20;99.90;;;;;;5047749;28;20553;-83
2021/10/22 12:02:28;;;;;;;17.65;2.40;;;9.20;99.90;;;;;;5030707;28;20037;-83
2021/10/22 12:05:08;;;;;;;26.60;3.80;;;9.20;99.90;;;;;;5044055;28;20035;-82
2021/10/22 12:07:35;;;;;;;;;;;9.10;99.90;;;;;;5047889;28;20049;-82
2021/10/22 12:10:03;;;;;;;15.27;2.15;;;9.10;99.90;;;;;;5046197;28;19929;-82
2021/10/22 12:12:41;;;;;;;23.92;2.92;;;9.30;99.90;;;;;;5044217;28;20052;-83
2021/10/22 12:15:11;;;;;;;20.27;2.28;;;9.20;99.90;;;;;;5046720;28;20339;-83
2021/10/22 12:17:37;;;;;;;16.70;2.67;;;9.40;99.90;;;;;;5065005;28;20044;-83
2021/10/22 12:20:06;;;;;;;22.05;3.13;;;9.50;99.90;;;;;;5063197;28;20799;-83
2021/10/22 12:22:48;;;;;;;15.30;3.25;;;9.50;99.90;;;;;;5047757;28;20406;-83
2021/10/22 12:25:23;;;;;;;17.67;3.13;;;9.60;99.90;;;;;;5048208;28;20044;-83
2021/10/22 12:27:57;;;;;;;15.32;2.47;;;9.70;99.90;;;;;;5046659;28;20695;-83
2021/10/22 12:30:27;;;;;;;13.70;2.13;;;9.60;99.90;;;;;;5048066;28;20410;-83
2021/10/22 12:33:00;;;;;;;17.13;3.53;;;9.60;99.90;;;;;;5066174;28;20064;-83
2021/10/22 12:35:49;;;;;;;28.23;3.00;;;9.50;99.90;;;;;;5067951;28;20040;-83
2021/10/22 12:38:18;;;;;;;12.88;1.35;;;9.50;99.90;;;;;;5068213;28;20048;-83
2021/10/22 12:40:44;;;;;;;20.48;1.95;;;9.60;99.90;;;;;;5066584;28;20051;-83
2021/10/22 12:43:24;;;;;;;9.38;1.08;;;9.80;99.90;;;;;;5067556;28;20037;-83
2021/10/22 12:46:16;;;;;;;13.20;1.40;;;9.70;99.90;;;;;;5050867;28;20576;-83
2021/10/22 12:48:53;;;;;;;9.60;1.38;;;9.40;99.90;;;;;;5067861;28;20420;-83
2021/10/22 12:51:24;;;;;;;12.27;1.45;;;9.40;99.90;;;;;;5069919;28;20036;-83
2021/10/22 12:53:57;;;;;;;6.10;1.00;;;9.70;99.90;;;;;;5066292;28;20138;-83
2021/10/22 12:56:29;;;;;;;10.93;2.00;;;9.90;99.90;;;;;;5070867;28;20048;-83
2021/10/22 12:59:03;;;;;;;12.55;2.08;;;10.10;99.90;;;;;;5070355;28;20055;-83
2021/10/22 13:01:37;;;;;;;20.45;2.35;;;10.20;99.90;;;;;;5066837;28;20060;-83
2021/10/22 13:04:06;;;;;;;13.32;2.75;;;10.50;99.90;;;;;;5054782;28;20076;-83
2021/10/22 13:06:55;;;;;;;12.52;2.30;;;10.70;99.90;;;;;;5066864;28;20124;-83